Nesenie raksti

Ziņas

Par Gliding.lv

Gliding.lv ir interneta vietne par planieriem un planierismu. Šeit būs atrodama informācija par iespējām pamēģināt, iesaistīties un organizēt planierisma aktivitātes. Izmanto Gliding.lv forumu, ja Tev ir kāda tēma diskusijai vai jautājums. Gliding.lv merķis ir informēt un apvienot planierisma interesentus, nodrošinot un apmainoties ar aktuālāko un arī bijušo. Lidojam!

Laiks Rīgā
10°
broken clouds
mitrums: 66%
vējš: 10m/s DR
Aug 9 • Zem 8
6°
Otr
5°
Tre
3°
Cet
4°
Pie
Meteo-dati no OpenWeatherMap

METAR

EVRA 170450Z 23018G31KT 200V270 9999 BKN036 12/05 Q0992 R18/290195 NOSIG

EVLA 170450Z AUTO 23028KT 9999 BKN018/// OVC024/// 08/05 Q0995

EVVA 170450Z AUTO 23023G37KT 9999 OVC012 07/07 Q0992

Nesenie raksti

Pāriet uz rīkjoslu